Time;durP1;ratioP1;P1;durP2;ratioP2;P2;SDS_P1;SDS_P2;PMS_P1;PMS_P2;Temp;Humidity;BMP_temperature;BMP_pressure;BME280_temperature;BME280_humidity;BME280_pressure;Samples;Min_cycle;Max_cycle;Signal;HPM_P1;HPM_P2
2022/06/15 00:01:21;;;;;;;2.80;2.00;;;18.80;63.60;19.20;96703.00;;;;5116587;28;20605;-85
2022/06/15 00:03:50;;;;;;;2.40;2.20;;;18.80;63.70;19.20;96700.00;;;;5116470;28;20186;-85
2022/06/15 00:06:20;;;;;;;2.00;1.90;;;18.70;63.60;19.20;96700.00;;;;5116801;28;20195;-86
2022/06/15 00:08:54;;;;;;;2.10;1.90;;;18.70;63.60;19.20;96703.00;;;;5114002;28;20214;-86
2022/06/15 00:11:26;;;;;;;2.10;1.70;;;18.70;63.70;19.10;96704.00;;;;5116571;28;20238;-86
2022/06/15 00:13:56;;;;;;;3.40;2.10;;;18.60;63.80;19.10;96702.00;;;;5115473;28;20199;-86
2022/06/15 00:16:26;;;;;;;2.10;2.00;;;18.60;63.90;19.10;96701.00;;;;5115918;28;20270;-86
2022/06/15 00:18:54;;;;;;;2.20;2.00;;;18.60;64.10;19.00;96696.00;;;;5116011;28;20219;-86
2022/06/15 00:21:22;;;;;;;2.37;2.17;;;18.50;63.80;19.00;96701.00;;;;5116594;28;20655;-86
2022/06/15 00:23:50;;;;;;;2.00;1.90;;;18.50;63.90;19.00;96693.00;;;;5115590;28;20194;-85
2022/06/15 00:26:18;;;;;;;1.97;1.87;;;18.50;64.00;18.90;96691.00;;;;5115469;28;20224;-85
2022/06/15 00:28:45;;;;;;;2.20;2.00;;;18.40;64.00;18.90;96694.00;;;;5124448;22;20650;-89
2022/06/15 00:31:12;;;;;;;5.00;1.93;;;18.40;64.10;18.80;96687.00;;;;5086197;28;20219;-89
2022/06/15 00:33:41;;;;;;;6.53;2.80;;;18.40;64.30;18.80;96692.00;;;;5086674;28;20246;-89
2022/06/15 00:36:13;;;;;;;2.43;2.20;;;18.30;64.40;18.70;96674.00;;;;5092597;28;20240;-89
2022/06/15 00:38:44;;;;;;;2.70;2.47;;;18.30;64.60;18.70;96681.00;;;;5088723;28;20306;-89
2022/06/15 00:41:14;;;;;;;4.47;2.70;;;18.30;64.70;18.60;96678.00;;;;5074218;28;20215;-89
2022/06/15 00:43:45;;;;;;;3.17;1.83;;;18.20;64.90;18.60;96676.00;;;;5071981;28;20197;-88
2022/06/15 00:46:23;;;;;;;3.27;2.30;;;18.20;65.00;18.60;96669.00;;;;5061041;28;20666;-89
2022/06/15 00:48:57;;;;;;;2.13;2.03;;;18.20;65.30;18.60;96673.00;;;;5057145;28;20217;-89
2022/06/15 00:51:26;;;;;;;2.27;2.07;;;18.20;65.40;18.60;96674.00;;;;5070314;28;20254;-89
2022/06/15 00:53:55;;;;;;;3.53;2.40;;;18.10;65.30;18.60;96674.00;;;;5068390;28;20666;-89
2022/06/15 00:56:24;;;;;;;2.10;1.83;;;18.10;65.40;18.60;96666.00;;;;5068829;28;20277;-88
2022/06/15 00:58:57;;;;;;;4.53;2.20;;;18.10;65.30;18.50;96659.00;;;;5070160;28;20239;-89
2022/06/15 01:01:24;;;;;;;2.10;1.90;;;18.10;65.40;18.50;96659.00;;;;5073629;28;20207;-89
2022/06/15 01:03:56;;;;;;;3.37;2.10;;;18.10;65.30;18.50;96665.00;;;;5073417;28;20575;-89
2022/06/15 01:06:41;;;;;;;2.40;2.20;;;18.10;65.50;18.50;96659.00;;;;5072483;28;20585;-89
2022/06/15 01:09:17;;;;;;;2.50;2.30;;;18.00;65.40;18.40;96663.00;;;;5068766;28;20299;-88
2022/06/15 01:12:15;;;;;;;4.20;1.90;;;18.00;65.10;18.40;96657.00;;;;5071837;28;20269;-89
2022/06/15 01:15:10;;;;;;;2.57;1.90;;;18.00;65.30;18.30;96649.00;;;;5070620;28;20573;-89
2022/06/15 01:17:58;;;;;;;2.33;2.13;;;17.90;65.40;18.30;96662.00;;;;5073686;28;20227;-89
2022/06/15 01:20:47;;;;;;;2.10;1.90;;;17.90;65.40;18.20;96660.00;;;;5071416;28;20248;-87
2022/06/15 01:24:01;;;;;;;2.57;2.10;;;17.90;65.50;18.20;96651.00;;;;5071473;28;20207;-89
2022/06/15 01:27:26;;;;;;;2.77;2.03;;;17.80;65.50;18.10;96639.00;;;;5071414;28;20200;-88
2022/06/15 01:30:21;;;;;;;1.93;1.83;;;17.80;65.70;18.10;96646.00;;;;4997934;28;20701;-89
2022/06/15 01:33:06;;;;;;;2.83;2.00;;;17.70;66.00;18.00;96647.00;;;;5003641;28;20218;-89
2022/06/15 01:35:47;;;;;;;2.63;2.43;;;17.60;65.80;18.00;96643.00;;;;5059516;28;20224;-89
2022/06/15 01:38:29;;;;;;;2.70;2.10;;;17.60;66.00;18.00;96649.00;;;;5071511;28;20192;-89
2022/06/15 01:41:09;;;;;;;2.87;2.07;;;17.60;66.10;17.90;96642.00;;;;5067106;28;20197;-90
2022/06/15 01:43:42;;;;;;;2.33;2.13;;;17.60;66.10;17.90;96644.00;;;;5071080;28;20231;-89
2022/06/15 01:46:12;;;;;;;3.07;1.93;;;17.50;66.00;17.90;96635.00;;;;5072393;28;20669;-89
2022/06/15 01:48:42;;;;;;;2.43;2.23;;;17.50;66.20;17.90;96637.00;;;;5071768;28;20624;-89
2022/06/15 01:51:18;;;;;;;2.40;2.17;;;17.50;66.30;17.80;96641.00;;;;5071775;28;20200;-89
2022/06/15 01:53:56;;;;;;;3.17;2.20;;;17.40;66.30;17.80;96640.00;;;;5072283;28;20203;-89
2022/06/15 01:56:29;;;;;;;2.90;2.00;;;17.40;66.50;17.80;96640.00;;;;5071107;28;20246;-88
2022/06/15 01:59:04;;;;;;;2.37;1.97;;;17.40;66.60;17.80;96643.00;;;;5071375;28;20234;-89
2022/06/15 02:01:45;;;;;;;2.20;2.00;;;17.30;66.90;17.80;96644.00;;;;5071115;28;20299;-88
2022/06/15 02:04:26;;;;;;;2.73;2.10;;;17.30;67.20;17.70;96646.00;;;;5073452;28;20195;-89
2022/06/15 02:07:11;;;;;;;2.77;2.43;;;17.30;67.30;17.70;96642.00;;;;5069951;28;20242;-89
2022/06/15 02:09:48;;;;;;;2.93;2.40;;;17.30;67.50;17.70;96640.00;;;;5071358;28;20698;-89
2022/06/15 02:12:35;;;;;;;4.27;2.70;;;17.30;67.60;17.70;96644.00;;;;5071339;28;20251;-89
2022/06/15 02:15:06;;;;;;;2.87;2.27;;;17.30;67.60;17.70;96629.00;;;;5063183;28;20197;-88
2022/06/15 02:17:40;;;;;;;3.83;2.27;;;17.30;67.60;17.70;96640.00;;;;5069501;28;20196;-88
2022/06/15 02:20:15;;;;;;;3.17;2.50;;;17.30;67.60;17.70;96627.00;;;;5071691;28;20216;-88
2022/06/15 02:22:45;;;;;;;5.80;2.90;;;17.30;67.50;17.60;96635.00;;;;5072070;28;20249;-89
2022/06/15 02:25:18;;;;;;;2.50;2.30;;;17.20;67.40;17.60;96613.00;;;;5072571;28;20199;-88
2022/06/15 02:27:48;;;;;;;2.90;2.40;;;17.20;67.60;17.60;96625.00;;;;5065953;28;20295;-88
2022/06/15 02:30:19;;;;;;;2.63;2.40;;;17.20;67.70;17.60;96619.00;;;;5070375;28;20345;-88
2022/06/15 02:32:49;;;;;;;2.67;2.47;;;17.20;67.80;17.60;96619.00;;;;5072060;28;20645;-88
2022/06/15 02:35:18;;;;;;;2.47;2.27;;;17.10;67.80;17.60;96620.00;;;;5071066;28;20265;-89
2022/06/15 02:37:46;;;;;;;3.47;2.27;;;17.20;67.80;17.60;96613.00;;;;5072565;28;21002;-88
2022/06/15 02:40:17;;;;;;;4.60;2.50;;;17.10;67.70;17.50;96616.00;;;;5071936;28;20277;-87
2022/06/15 02:42:45;;;;;;;3.83;2.30;;;17.10;67.70;17.50;96610.00;;;;5072211;28;20279;-88
2022/06/15 02:45:20;;;;;;;2.77;2.40;;;17.10;67.80;17.50;96615.00;;;;5052714;28;20568;-88
2022/06/15 02:47:49;;;;;;;2.20;2.10;;;17.10;67.90;17.50;96609.00;;;;5061454;28;20278;-88
2022/06/15 02:50:22;;;;;;;2.53;2.33;;;17.10;67.90;17.40;96611.00;;;;5071719;28;20243;-88
2022/06/15 02:52:57;;;;;;;2.70;2.50;;;17.00;67.70;17.40;96610.00;;;;5071809;28;20224;-88
2022/06/15 02:55:27;;;;;;;2.33;2.13;;;17.00;67.70;17.40;96605.00;;;;5070850;28;20644;-88
2022/06/15 02:58:07;;;;;;;2.33;2.10;;;17.00;67.80;17.30;96611.00;;;;5071705;28;20578;-89
2022/06/15 03:00:35;;;;;;;2.47;2.20;;;16.90;67.70;17.30;96605.00;;;;5071187;28;20203;-89
2022/06/15 03:03:04;;;;;;;2.43;2.23;;;16.90;67.70;17.30;96606.00;;;;5071572;28;20280;-88
2022/06/15 03:05:31;;;;;;;2.90;2.70;;;16.90;67.80;17.20;96603.00;;;;5071192;28;20246;-88
2022/06/15 03:07:59;;;;;;;3.03;2.60;;;16.80;67.80;17.20;96607.00;;;;5069698;28;20200;-89
2022/06/15 03:10:26;;;;;;;2.67;2.33;;;16.80;67.90;17.20;96610.00;;;;5070760;28;20303;-88
2022/06/15 03:12:53;;;;;;;2.87;2.60;;;16.80;68.00;17.10;96617.00;;;;5071156;28;20741;-88
2022/06/15 03:15:20;;;;;;;2.93;2.47;;;16.80;68.10;17.10;96608.00;;;;5070623;28;20236;-87
2022/06/15 03:17:48;;;;;;;3.17;2.60;;;16.70;68.20;17.10;96620.00;;;;5069763;28;20636;-88
2022/06/15 03:20:16;;;;;;;2.80;2.30;;;16.70;68.20;17.10;96616.00;;;;5069573;28;20724;-88
2022/06/15 03:22:43;;;;;;;2.93;2.47;;;16.70;68.30;17.10;96606.00;;;;5070242;28;20265;-88
2022/06/15 03:25:11;;;;;;;3.43;2.70;;;16.70;68.30;17.00;96617.00;;;;5069806;28;20227;-88
2022/06/15 03:27:38;;;;;;;3.10;2.80;;;16.70;68.50;17.00;96617.00;;;;5064967;28;20196;-89
2022/06/15 03:30:08;;;;;;;3.73;2.57;;;16.60;68.60;17.00;96617.00;;;;5070780;28;20258;-88
2022/06/15 03:32:36;;;;;;;3.23;2.37;;;16.60;68.80;17.00;96615.00;;;;5069927;28;20223;-88
2022/06/15 03:35:05;;;;;;;2.73;2.33;;;16.60;69.00;17.00;96606.00;;;;5070137;28;20196;-89
2022/06/15 03:37:34;;;;;;;2.40;2.17;;;16.60;69.10;17.00;96610.00;;;;5069422;28;20619;-89
2022/06/15 03:40:01;;;;;;;2.57;2.30;;;16.60;69.20;17.00;96609.00;;;;5070860;28;21305;-88
2022/06/15 03:42:28;;;;;;;2.70;2.50;;;16.60;69.30;17.00;96612.00;;;;5070647;28;20219;-88
2022/06/15 03:44:56;;;;;;;2.40;2.20;;;16.60;69.60;17.00;96610.00;;;;5070356;28;20204;-89
2022/06/15 03:47:23;;;;;;;2.87;2.60;;;16.50;69.50;17.00;96613.00;;;;5070041;28;20200;-89
2022/06/15 03:49:54;;;;;;;2.67;2.47;;;16.50;69.50;16.90;96609.00;;;;5068495;28;20713;-89
2022/06/15 03:52:25;;;;;;;3.20;2.90;;;16.50;69.70;17.00;96614.00;;;;5071094;28;20281;-88
2022/06/15 03:54:54;;;;;;;4.07;2.93;;;16.50;69.80;17.00;96618.00;;;;5061971;28;20241;-89
2022/06/15 03:57:23;;;;;;;3.00;2.80;;;16.50;69.90;17.00;96610.00;;;;5068518;28;20283;-89
2022/06/15 03:59:50;;;;;;;3.17;2.87;;;16.50;69.90;16.90;96606.00;;;;5057096;28;20230;-88
2022/06/15 04:02:17;;;;;;;2.97;2.77;;;16.50;69.80;16.90;96600.00;;;;5067980;28;20231;-88
2022/06/15 04:04:44;;;;;;;3.33;3.00;;;16.50;69.90;17.00;96609.00;;;;5071148;28;20726;-87
2022/06/15 04:09:55;;;;;;;3.47;3.03;;;16.50;70.10;17.00;96601.00;;;;5068032;28;20235;-88
2022/06/15 04:12:22;;;;;;;3.97;3.40;;;16.60;70.20;17.00;96594.00;;;;5071291;28;20220;-88
2022/06/15 04:14:50;;;;;;;3.53;3.07;;;16.60;70.30;17.00;96594.00;;;;5068135;28;20193;-88
2022/06/15 04:17:18;;;;;;;2.93;2.73;;;16.60;70.50;17.00;96595.00;;;;5071544;28;20197;-88
2022/06/15 04:20:31;;;;;;;3.70;2.63;;;16.60;70.50;17.00;96593.00;;;;5070469;28;20220;-87
2022/06/15 04:22:35;;;;;;;2.97;2.77;;;16.60;70.60;17.00;96594.00;;;;5069478;28;20283;-88
2022/06/15 04:25:04;;;;;;;2.93;2.73;;;16.60;70.50;17.10;96595.00;;;;5070209;28;20206;-88
2022/06/15 04:27:32;;;;;;;3.37;2.90;;;16.60;70.70;17.10;96590.00;;;;5067248;28;20200;-88
2022/06/15 04:30:00;;;;;;;4.03;3.13;;;16.60;70.60;17.10;96600.00;;;;5070535;28;20231;-88
2022/06/15 04:32:27;;;;;;;7.03;3.03;;;16.60;70.70;17.10;96597.00;;;;5070987;28;20315;-88
2022/06/15 04:34:54;;;;;;;3.93;2.80;;;16.70;70.70;17.10;96600.00;;;;5074046;28;20291;-89
2022/06/15 04:37:22;;;;;;;3.50;3.20;;;16.70;70.60;17.10;96604.00;;;;5073932;28;20246;-88
2022/06/15 04:39:49;;;;;;;2.87;2.67;;;16.70;70.60;17.10;96609.00;;;;5073295;28;20212;-88
2022/06/15 04:42:18;;;;;;;3.40;3.10;;;16.70;70.60;17.10;96613.00;;;;5068953;28;20239;-87
2022/06/15 04:44:45;;;;;;;3.60;3.00;;;16.70;70.70;17.10;96611.00;;;;5067010;28;20242;-88
2022/06/15 04:47:12;;;;;;;3.47;2.90;;;16.70;70.70;17.10;96621.00;;;;5068807;28;20625;-88
2022/06/15 04:49:39;;;;;;;3.37;3.03;;;16.70;70.80;17.10;96617.00;;;;5062631;28;20571;-88
2022/06/15 04:52:07;;;;;;;3.50;2.83;;;16.70;70.80;17.10;96618.00;;;;5072790;28;20282;-89
2022/06/15 04:54:34;;;;;;;3.53;3.17;;;16.70;70.80;17.20;96612.00;;;;5074016;28;20245;-88
2022/06/15 04:57:01;;;;;;;3.07;2.87;;;16.70;70.90;17.20;96616.00;;;;5072168;28;20253;-89
2022/06/15 04:59:30;;;;;;;2.90;2.70;;;16.70;71.10;17.20;96610.00;;;;5072776;28;20251;-89
2022/06/15 05:01:58;;;;;;;4.97;3.10;;;16.80;71.30;17.30;96621.00;;;;5072404;28;20287;-88
2022/06/15 05:04:26;;;;;;;3.13;2.90;;;16.80;71.30;17.30;96621.00;;;;5073345;28;20278;-89
2022/06/15 05:06:54;;;;;;;5.13;3.33;;;16.80;71.40;17.30;96618.00;;;;5072549;28;20249;-89
2022/06/15 05:09:21;;;;;;;4.07;3.57;;;16.80;71.40;17.30;96621.00;;;;5075123;28;20231;-89
2022/06/15 05:11:48;;;;;;;3.57;3.27;;;16.80;71.60;17.30;96622.00;;;;5074029;28;20254;-88
2022/06/15 05:14:16;;;;;;;3.73;3.50;;;16.90;71.60;17.40;96619.00;;;;5074041;28;20266;-89
2022/06/15 05:16:44;;;;;;;4.37;3.30;;;16.90;71.70;17.40;96625.00;;;;5073181;28;20236;-89
2022/06/15 05:19:12;;;;;;;4.23;3.47;;;16.90;71.70;17.50;96625.00;;;;5074171;28;20220;-88
2022/06/15 05:21:40;;;;;;;2.97;2.77;;;17.00;71.90;17.50;96620.00;;;;5062704;28;20227;-88
2022/06/15 05:24:09;;;;;;;3.30;3.00;;;17.00;72.00;17.50;96629.00;;;;5072336;28;20646;-89
2022/06/15 05:26:37;;;;;;;3.67;3.30;;;17.00;72.10;17.60;96627.00;;;;5080804;28;20196;-88
2022/06/15 05:29:07;;;;;;;4.03;3.63;;;17.10;72.20;17.60;96635.00;;;;5085658;28;20230;-88
2022/06/15 05:31:36;;;;;;;3.73;3.03;;;17.10;72.30;17.70;96637.00;;;;5084018;28;20596;-88
2022/06/15 05:34:07;;;;;;;4.40;3.47;;;17.10;72.40;17.80;96632.00;;;;5084033;28;20227;-88
2022/06/15 05:36:36;;;;;;;3.47;3.23;;;17.20;72.50;17.80;96633.00;;;;5079731;28;20294;-88
2022/06/15 05:39:13;;;;;;;4.37;3.33;;;17.30;72.60;17.90;96628.00;;;;5084349;28;20277;-89
2022/06/15 05:41:40;;;;;;;3.93;3.40;;;17.30;72.60;18.00;96628.00;;;;5068386;28;20618;-89
2022/06/15 05:44:08;;;;;;;3.77;3.47;;;17.40;72.70;18.10;96626.00;;;;5073530;28;20288;-89
2022/06/15 05:46:39;;;;;;;3.73;3.17;;;17.50;72.90;18.20;96621.00;;;;5066520;28;20204;-88
2022/06/15 05:49:09;;;;;;;3.60;3.30;;;17.60;73.20;18.30;96633.00;;;;5068277;28;20243;-89
2022/06/15 05:51:38;;;;;;;3.73;3.30;;;17.70;73.40;18.40;96632.00;;;;5074805;28;20184;-87
2022/06/15 05:54:07;;;;;;;3.17;2.97;;;17.80;73.50;18.60;96636.00;;;;5072743;28;20247;-86
2022/06/15 05:56:34;;;;;;;5.00;4.03;;;17.90;73.70;18.70;96638.00;;;;5073021;28;20207;-86
2022/06/15 05:59:01;;;;;;;4.20;3.80;;;18.00;73.70;18.80;96628.00;;;;5070034;28;20296;-87
2022/06/15 06:01:32;;;;;;;3.57;3.27;;;18.10;73.50;18.80;96635.00;;;;5074217;28;20207;-87
2022/06/15 06:03:59;;;;;;;5.23;3.33;;;18.20;73.40;18.90;96634.00;;;;5072888;28;20223;-87
2022/06/15 06:06:29;;;;;;;4.10;3.30;;;18.20;73.20;19.00;96638.00;;;;5069757;28;20743;-86
2022/06/15 06:08:57;;;;;;;3.20;3.00;;;18.30;73.10;19.10;96636.00;;;;5067025;28;20304;-87
2022/06/15 06:11:26;;;;;;;4.50;3.37;;;18.40;73.00;19.20;96632.00;;;;5073435;28;20196;-86
2022/06/15 06:13:53;;;;;;;3.60;3.30;;;18.50;72.80;19.20;96638.00;;;;5061541;28;20254;-86
2022/06/15 06:16:21;;;;;;;3.87;3.53;;;18.50;72.70;19.30;96647.00;;;;5071796;28;20290;-87
2022/06/15 06:18:51;;;;;;;4.83;3.70;;;18.60;72.90;19.40;96645.00;;;;5079973;28;20302;-87
2022/06/15 06:21:20;;;;;;;3.80;3.50;;;18.70;73.10;19.50;96644.00;;;;5077938;28;20569;-87
2022/06/15 06:23:49;;;;;;;4.53;3.20;;;18.80;73.10;19.60;96640.00;;;;5076860;28;20617;-86
2022/06/15 06:26:28;;;;;;;3.97;3.47;;;18.90;72.80;19.70;96638.00;;;;5079203;28;20195;-88
2022/06/15 06:28:56;;;;;;;5.50;3.63;;;18.90;72.80;19.70;96641.00;;;;5074169;28;20266;-87
2022/06/15 06:31:24;;;;;;;4.07;3.70;;;19.00;72.90;19.80;96635.00;;;;5069138;28;20302;-88
2022/06/15 06:33:52;;;;;;;3.57;3.27;;;19.10;73.10;19.90;96641.00;;;;5092661;22;20255;-85
2022/06/15 06:36:31;;;;;;;3.97;3.67;;;19.20;73.00;20.10;96639.00;;;;5049682;28;20201;-86
2022/06/15 06:39:05;;;;;;;6.23;4.03;;;19.30;73.20;20.20;96636.00;;;;5045872;28;20675;-84
2022/06/15 06:41:33;;;;;;;5.40;4.27;;;19.40;73.10;20.30;96638.00;;;;5037645;28;20233;-85
2022/06/15 06:44:03;;;;;;;4.37;3.97;;;19.50;73.20;20.40;96646.00;;;;5033406;28;20236;-85
2022/06/15 06:46:30;;;;;;;4.57;3.77;;;19.60;72.90;20.60;96644.00;;;;5032671;28;20286;-86
2022/06/15 06:48:59;;;;;;;3.37;3.13;;;19.70;72.90;20.60;96649.00;;;;5028547;28;20225;-86
2022/06/15 06:51:27;;;;;;;3.67;3.37;;;19.80;72.90;20.80;96645.00;;;;5031002;28;20684;-87
2022/06/15 06:53:54;;;;;;;3.77;3.23;;;19.90;72.90;20.80;96657.00;;;;5031121;28;20846;-87
2022/06/15 06:56:22;;;;;;;3.93;3.00;;;20.10;73.00;20.90;96648.00;;;;5032623;28;20252;-87
2022/06/15 06:58:49;;;;;;;5.80;3.27;;;20.20;73.10;21.00;96659.00;;;;5033200;28;20284;-86
2022/06/15 07:01:17;;;;;;;3.23;2.93;;;20.20;72.90;21.20;96658.00;;;;5030563;28;20225;-87
2022/06/15 07:03:44;;;;;;;4.67;2.70;;;20.40;73.20;21.30;96654.00;;;;5024786;28;20220;-86
2022/06/15 07:06:12;;;;;;;3.50;3.20;;;20.50;73.40;21.50;96657.00;;;;5028729;28;20205;-87
2022/06/15 07:08:39;;;;;;;3.63;3.00;;;20.60;73.10;21.70;96658.00;;;;5031159;28;20201;-87
2022/06/15 07:11:11;;;;;;;4.07;3.20;;;20.80;73.00;21.90;96663.00;;;;5032368;28;20202;-86
2022/06/15 07:13:40;;;;;;;4.20;3.33;;;20.90;73.00;22.10;96660.00;;;;5032300;28;20355;-87
2022/06/15 07:16:10;;;;;;;4.43;3.20;;;21.10;72.90;22.30;96656.00;;;;5026561;28;20713;-87
2022/06/15 07:18:37;;;;;;;4.73;2.93;;;21.30;72.60;22.50;96661.00;;;;5032791;28;20255;-87
2022/06/15 07:21:08;;;;;;;3.43;2.77;;;21.50;72.20;22.70;96663.00;;;;5033001;28;20282;-87
2022/06/15 07:23:35;;;;;;;3.87;2.73;;;21.60;72.80;22.90;96666.00;;;;5032805;28;20244;-87
2022/06/15 07:26:04;;;;;;;3.43;2.53;;;21.80;71.90;23.10;96669.00;;;;5048088;28;20232;-86
2022/06/15 07:28:32;;;;;;;5.83;2.73;;;22.00;71.30;23.30;96665.00;;;;5052606;28;20197;-87
2022/06/15 07:31:01;;;;;;;3.03;2.83;;;22.20;70.60;23.50;96661.00;;;;5046616;28;20197;-87
2022/06/15 07:33:28;;;;;;;4.20;2.87;;;22.40;70.50;23.70;96666.00;;;;5033198;28;20316;-87
2022/06/15 07:35:56;;;;;;;3.47;2.77;;;22.50;69.70;24.00;96660.00;;;;5033318;28;20225;-87
2022/06/15 07:38:23;;;;;;;2.90;2.43;;;22.70;69.50;24.20;96657.00;;;;5033260;28;20251;-87
2022/06/15 07:40:51;;;;;;;2.60;2.40;;;22.90;69.30;24.40;96659.00;;;;5033316;28;20233;-87
2022/06/15 07:43:18;;;;;;;2.80;2.60;;;23.20;68.80;24.70;96662.00;;;;5033111;28;20296;-87
2022/06/15 07:45:47;;;;;;;3.77;2.23;;;23.30;68.20;24.90;96665.00;;;;5032463;28;20242;-88
2022/06/15 07:51:00;;;;;;;2.60;2.40;;;23.70;67.20;25.40;96670.00;;;;5032613;28;20187;-87
2022/06/15 07:53:28;;;;;;;2.77;2.50;;;24.00;66.50;25.60;96667.00;;;;5032193;28;20224;-87
2022/06/15 07:55:56;;;;;;;6.23;2.67;;;24.20;66.00;25.80;96665.00;;;;5046515;28;20208;-87
2022/06/15 07:58:24;;;;;;;2.83;2.17;;;24.40;65.40;26.00;96662.00;;;;5052225;28;20203;-87
2022/06/15 08:00:52;;;;;;;3.00;2.40;;;24.60;65.20;26.20;96661.00;;;;5048825;28;20204;-87
2022/06/15 08:03:21;;;;;;;3.23;2.13;;;24.70;64.90;26.40;96668.00;;;;5032533;28;20285;-87
2022/06/15 08:05:51;;;;;;;2.63;2.17;;;24.90;64.60;26.60;96663.00;;;;5033737;28;20638;-86
2022/06/15 08:08:25;;;;;;;3.97;2.10;;;25.10;63.90;26.80;96668.00;;;;5036376;28;20205;-87
2022/06/15 08:10:52;;;;;;;2.10;2.00;;;25.30;63.80;27.00;96660.00;;;;5038227;28;20225;-86
2022/06/15 08:13:20;;;;;;;2.83;2.00;;;25.50;63.80;27.20;96666.00;;;;5036038;28;20217;-87
2022/06/15 08:15:50;;;;;;;2.03;1.93;;;25.70;63.20;27.50;96669.00;;;;5035950;28;20563;-87
2022/06/15 08:18:23;;;;;;;2.07;1.90;;;25.80;63.40;27.80;96658.00;;;;5036024;28;20209;-87
2022/06/15 08:20:56;;;;;;;2.57;1.93;;;26.00;61.90;28.10;96663.00;;;;5032748;28;20263;-88
2022/06/15 08:23:27;;;;;;;4.77;1.87;;;26.30;61.30;28.40;96667.00;;;;5036024;28;20275;-87
2022/06/15 08:26:00;;;;;;;2.57;2.10;;;26.50;61.10;28.80;96664.00;;;;5050316;28;20250;-87
2022/06/15 08:28:33;;;;;;;3.25;1.90;;;26.70;60.60;29.00;96656.00;;;;5056271;28;20185;-87
2022/06/15 08:31:00;;;;;;;2.33;2.13;;;26.90;60.30;29.30;96655.00;;;;5056905;28;20196;-88
2022/06/15 08:33:29;;;;;;;2.40;2.20;;;27.10;60.30;29.50;96654.00;;;;5056353;28;20319;-88
2022/06/15 08:35:57;;;;;;;2.80;2.17;;;27.40;59.70;29.70;96656.00;;;;5057104;28;20668;-87
2022/06/15 08:38:27;;;;;;;1.83;1.60;;;27.60;59.50;29.90;96653.00;;;;5064496;28;20318;-87
2022/06/15 08:40:58;;;;;;;3.22;2.20;;;27.80;58.90;30.10;96659.00;;;;5057672;28;20563;-88
2022/06/15 08:43:44;;;;;;;1.80;1.70;;;28.10;58.30;30.30;96659.00;;;;5055819;28;20236;-86
2022/06/15 08:46:23;;;;;;;2.45;1.77;;;28.30;57.10;30.50;96658.00;;;;5050142;28;20250;-88
2022/06/15 08:49:08;;;;;;;1.73;1.60;;;28.50;57.00;30.70;96662.00;;;;5016534;28;20622;-88
2022/06/15 08:51:40;;;;;;;1.55;1.42;;;28.60;56.00;30.90;96661.00;;;;5035822;28;20269;-87
2022/06/15 08:54:17;;;;;;;1.88;1.77;;;28.90;56.10;31.10;96655.00;;;;5035241;28;20309;-87
2022/06/15 08:56:49;;;;;;;1.70;1.60;;;29.00;55.60;31.30;96657.00;;;;5016010;28;20648;-88
2022/06/15 08:59:27;;;;;;;1.67;1.30;;;29.20;55.30;31.50;96662.00;;;;5015688;28;20206;-87
2022/06/15 09:02:06;;;;;;;2.53;1.58;;;29.40;54.80;31.80;96665.00;;;;5015363;28;20635;-87
2022/06/15 09:04:50;;;;;;;1.63;1.52;;;29.50;54.30;32.00;96657.00;;;;5015290;28;20263;-87
2022/06/15 09:07:38;;;;;;;1.48;1.30;;;29.70;54.00;32.20;96654.00;;;;5015528;28;20198;-87
2022/06/15 09:10:28;;;;;;;2.00;1.52;;;29.90;53.70;32.40;96664.00;;;;5015239;28;20194;-87
2022/06/15 09:13:25;;;;;;;1.88;1.50;;;30.10;53.40;32.60;96664.00;;;;5015464;28;20202;-87
2022/06/15 09:16:03;;;;;;;1.48;1.38;;;30.40;52.30;32.80;96668.00;;;;5025158;28;20201;-87
2022/06/15 09:18:37;;;;;;;1.38;1.27;;;30.70;52.30;33.00;96668.00;;;;5034396;28;20197;-87
2022/06/15 09:21:14;;;;;;;1.20;1.20;;;30.90;51.90;33.20;96668.00;;;;5035256;28;20287;-87
2022/06/15 09:23:49;;;;;;;1.40;1.30;;;31.20;51.90;33.50;96674.00;;;;5035198;28;20221;-87
2022/06/15 09:26:26;;;;;;;0.98;0.95;;;31.40;51.30;33.70;96666.00;;;;5034376;28;20197;-87
2022/06/15 09:29:02;;;;;;;1.50;1.40;;;31.70;50.00;33.90;96669.00;;;;5035025;28;20253;-88
2022/06/15 09:31:40;;;;;;;1.10;1.10;;;31.90;49.20;34.10;96663.00;;;;5035011;28;20687;-87
2022/06/15 09:34:11;;;;;;;1.13;1.08;;;32.10;49.30;34.30;96667.00;;;;5033932;28;20221;-87
2022/06/15 09:36:47;;;;;;;5.38;1.70;;;32.40;49.10;34.50;96659.00;;;;5034667;28;20737;-87
2022/06/15 09:39:15;;;;;;;1.58;1.33;;;32.60;47.60;34.60;96656.00;;;;5034908;28;20617;-87
2022/06/15 09:41:52;;;;;;;1.80;1.20;;;32.80;46.90;34.80;96658.00;;;;5034743;28;20236;-87
2022/06/15 09:44:37;;;;;;;1.88;1.25;;;33.00;45.90;34.90;96659.00;;;;5034418;28;20703;-87
2022/06/15 09:47:17;;;;;;;1.77;1.40;;;33.30;45.80;35.10;96669.00;;;;5034452;28;20186;-87
2022/06/15 09:49:53;;;;;;;1.42;1.10;;;33.50;46.40;35.30;96672.00;;;;5034180;28;20263;-87
2022/06/15 09:52:40;;;;;;;1.30;1.17;;;33.80;46.40;35.40;96664.00;;;;5034447;28;20853;-87
2022/06/15 09:55:16;;;;;;;1.20;1.10;;;34.00;45.40;35.60;96673.00;;;;5041831;28;20260;-87
2022/06/15 09:57:44;;;;;;;2.47;0.98;;;34.20;45.10;35.70;96667.00;;;;5054339;28;20224;-87
2022/06/15 10:00:15;;;;;;;2.25;1.25;;;34.30;45.30;35.80;96666.00;;;;5053949;28;20208;-87
2022/06/15 10:02:50;;;;;;;2.50;1.20;;;34.30;44.80;35.90;96671.00;;;;5053814;28;20228;-88
2022/06/15 10:05:27;;;;;;;1.70;1.00;;;34.40;44.30;36.10;96677.00;;;;5014172;28;20280;-87
2022/06/15 10:08:00;;;;;;;2.17;1.10;;;34.50;43.80;36.20;96676.00;;;;5014063;28;20763;-88
2022/06/15 10:10:33;;;;;;;2.25;1.05;;;34.60;44.20;36.30;96675.00;;;;5014276;28;20231;-88
2022/06/15 10:13:06;;;;;;;1.50;1.05;;;34.70;43.90;36.30;96675.00;;;;5014186;28;20205;-86
2022/06/15 10:15:53;;;;;;;3.25;1.20;;;34.80;43.30;36.40;96678.00;;;;5019311;28;20236;-86
2022/06/15 10:18:31;;;;;;;2.42;1.20;;;35.10;43.30;36.50;96677.00;;;;5014185;28;20206;-87
2022/06/15 10:21:24;;;;;;;1.35;1.08;;;34.80;41.80;36.60;96672.00;;;;5013839;28;20276;-88
2022/06/15 10:24:32;;;;;;;1.48;0.85;;;35.10;41.20;36.60;96675.00;;;;5013464;28;20287;-88
2022/06/15 10:27:30;;;;;;;1.80;0.88;;;35.20;42.70;36.60;96672.00;;;;5013657;28;20201;-87
2022/06/15 10:30:04;;;;;;;1.23;1.13;;;35.40;42.10;36.70;96672.00;;;;5013004;28;20198;-87
2022/06/15 10:32:32;;;;;;;1.30;1.20;;;35.40;42.10;36.70;96669.00;;;;5013887;28;20225;-87
2022/06/15 10:35:17;;;;;;;1.20;1.10;;;35.60;42.30;36.70;96669.00;;;;5031636;28;20241;-87
2022/06/15 10:37:51;;;;;;;1.27;1.10;;;35.70;41.10;36.70;96667.00;;;;5033485;28;20600;-87
2022/06/15 10:40:29;;;;;;;1.48;1.25;;;35.90;41.90;36.70;96667.00;;;;5033127;28;20181;-88
2022/06/15 10:43:03;;;;;;;2.35;1.00;;;36.00;41.30;36.80;96665.00;;;;5030271;28;20193;-87
2022/06/15 10:45:36;;;;;;;7.22;1.20;;;36.10;41.00;36.80;96663.00;;;;5032119;28;20270;-87
2022/06/15 10:48:12;;;;;;;1.52;0.90;;;36.20;41.60;36.80;96660.00;;;;5032339;28;20201;-88
2022/06/15 10:50:47;;;;;;;1.05;0.98;;;36.30;40.90;36.80;96663.00;;;;5030851;28;20197;-87
2022/06/15 10:53:31;;;;;;;1.00;0.95;;;36.40;40.90;36.80;96661.00;;;;5032985;28;20235;-87
2022/06/15 11:04:33;;;;;;;1.77;1.10;;;36.00;37.90;36.10;96657.00;;;;5032816;28;20267;-86
2022/06/15 11:07:09;;;;;;;1.42;0.80;;;35.80;39.10;35.80;96656.00;;;;5033053;28;20228;-87
2022/06/15 11:09:42;;;;;;;1.05;0.88;;;35.50;38.70;35.60;96653.00;;;;5033103;28;20616;-87
2022/06/15 11:12:27;;;;;;;1.20;0.93;;;35.30;38.30;35.30;96653.00;;;;5032901;28;20671;-87
2022/06/15 11:14:59;;;;;;;1.67;1.08;;;35.00;39.50;35.00;96646.00;;;;5032384;28;20225;-86
2022/06/15 11:20:31;;;;;;;1.77;0.90;;;34.40;39.40;34.50;96647.00;;;;5032715;28;20184;-88
2022/06/15 11:23:08;;;;;;;0.73;0.73;;;34.10;38.90;34.20;96642.00;;;;5033075;28;20182;-87
2022/06/15 11:25:44;;;;;;;1.02;1.00;;;33.80;40.40;34.00;96634.00;;;;5044021;28;20292;-87
2022/06/15 11:28:20;;;;;;;1.40;1.00;;;33.60;40.40;33.90;96637.00;;;;5052346;28;20228;-88
2022/06/15 11:31:02;;;;;;;1.17;1.10;;;33.40;40.50;33.70;96634.00;;;;5051931;28;20251;-88
2022/06/15 11:33:40;;;;;;;2.10;1.02;;;33.20;41.60;33.50;96629.00;;;;5034063;28;20260;-87
2022/06/15 11:36:25;;;;;;;1.10;1.00;;;32.90;40.40;33.30;96629.00;;;;5034355;28;20223;-88